sensor_id;sensor_type;location;lat;lon;timestamp;temperature;humidity
23116;DHT22;11727;52.134;5.052;2022-12-16T00:00:05;0.60;99.90
23116;DHT22;11727;52.134;5.052;2022-12-16T00:02:31;0.60;99.90
23116;DHT22;11727;52.134;5.052;2022-12-16T00:04:57;0.60;99.90
23116;DHT22;11727;52.134;5.052;2022-12-16T00:07:23;0.60;99.90
23116;DHT22;11727;52.134;5.052;2022-12-16T00:09:49;0.60;99.90
23116;DHT22;11727;52.134;5.052;2022-12-16T00:12:14;0.60;99.90
23116;DHT22;11727;52.134;5.052;2022-12-16T00:14:40;0.60;99.90
23116;DHT22;11727;52.134;5.052;2022-12-16T00:17:05;0.60;99.90
23116;DHT22;11727;52.134;5.052;2022-12-16T00:19:31;0.60;99.90
23116;DHT22;11727;52.134;5.052;2022-12-16T00:21:57;0.60;99.90
23116;DHT22;11727;52.134;5.052;2022-12-16T00:24:22;0.60;99.90
23116;DHT22;11727;52.134;5.052;2022-12-16T00:26:48;0.60;99.90
23116;DHT22;11727;52.134;5.052;2022-12-16T00:29:13;0.60;99.90
23116;DHT22;11727;52.134;5.052;2022-12-16T00:31:39;0.60;99.90
23116;DHT22;11727;52.134;5.052;2022-12-16T00:34:05;0.60;99.90
23116;DHT22;11727;52.134;5.052;2022-12-16T00:36:30;0.60;99.90
23116;DHT22;11727;52.134;5.052;2022-12-16T00:38:56;0.60;99.90
23116;DHT22;11727;52.134;5.052;2022-12-16T00:41:21;0.60;99.90
23116;DHT22;11727;52.134;5.052;2022-12-16T00:43:47;0.60;99.90
23116;DHT22;11727;52.134;5.052;2022-12-16T00:46:13;0.70;99.90
23116;DHT22;11727;52.134;5.052;2022-12-16T00:48:38;0.70;99.90
23116;DHT22;11727;52.134;5.052;2022-12-16T00:51:04;0.70;99.90
23116;DHT22;11727;52.134;5.052;2022-12-16T00:53:30;0.70;99.90
23116;DHT22;11727;52.134;5.052;2022-12-16T00:56:09;0.70;99.90
23116;DHT22;11727;52.134;5.052;2022-12-16T00:58:35;0.80;99.90
23116;DHT22;11727;52.134;5.052;2022-12-16T01:01:01;0.80;99.90
23116;DHT22;11727;52.134;5.052;2022-12-16T01:03:27;0.80;99.90
23116;DHT22;11727;52.134;5.052;2022-12-16T01:05:53;0.80;99.90
23116;DHT22;11727;52.134;5.052;2022-12-16T01:08:19;0.80;99.90
23116;DHT22;11727;52.134;5.052;2022-12-16T01:10:52;0.80;99.90
23116;DHT22;11727;52.134;5.052;2022-12-16T01:13:18;0.80;99.90
23116;DHT22;11727;52.134;5.052;2022-12-16T01:15:44;0.80;99.90
23116;DHT22;11727;52.134;5.052;2022-12-16T01:18:09;0.80;99.90
23116;DHT22;11727;52.134;5.052;2022-12-16T01:20:35;0.70;99.90
23116;DHT22;11727;52.134;5.052;2022-12-16T01:23:01;0.70;99.90
23116;DHT22;11727;52.134;5.052;2022-12-16T01:25:26;0.70;99.90
23116;DHT22;11727;52.134;5.052;2022-12-16T01:27:52;0.70;99.90
23116;DHT22;11727;52.134;5.052;2022-12-16T01:30:18;0.70;99.90
23116;DHT22;11727;52.134;5.052;2022-12-16T01:32:43;0.70;99.90
23116;DHT22;11727;52.134;5.052;2022-12-16T01:35:10;0.80;99.90
23116;DHT22;11727;52.134;5.052;2022-12-16T01:37:35;0.80;99.90
23116;DHT22;11727;52.134;5.052;2022-12-16T01:40:01;0.80;99.90
23116;DHT22;11727;52.134;5.052;2022-12-16T01:42:27;0.80;99.90
23116;DHT22;11727;52.134;5.052;2022-12-16T01:44:55;0.90;99.90
23116;DHT22;11727;52.134;5.052;2022-12-16T01:47:26;0.90;99.90
23116;DHT22;11727;52.134;5.052;2022-12-16T01:49:58;0.90;99.90
23116;DHT22;11727;52.134;5.052;2022-12-16T01:52:34;0.90;99.90
23116;DHT22;11727;52.134;5.052;2022-12-16T01:55:11;0.90;99.90
23116;DHT22;11727;52.134;5.052;2022-12-16T01:57:44;0.90;99.90
23116;DHT22;11727;52.134;5.052;2022-12-16T02:00:13;1.00;99.90
23116;DHT22;11727;52.134;5.052;2022-12-16T02:02:42;1.00;99.90
23116;DHT22;11727;52.134;5.052;2022-12-16T02:05:10;1.00;99.90
23116;DHT22;11727;52.134;5.052;2022-12-16T02:07:59;1.00;99.90
23116;DHT22;11727;52.134;5.052;2022-12-16T02:13:34;1.10;99.90
23116;DHT22;11727;52.134;5.052;2022-12-16T02:18:57;1.10;99.90
23116;DHT22;11727;52.134;5.052;2022-12-16T02:35:14;1.20;99.90
23116;DHT22;11727;52.134;5.052;2022-12-16T02:40:33;1.20;99.90
23116;DHT22;11727;52.134;5.052;2022-12-16T02:43:04;1.20;99.90
23116;DHT22;11727;52.134;5.052;2022-12-16T02:45:31;1.20;99.90
23116;DHT22;11727;52.134;5.052;2022-12-16T02:47:57;1.20;99.90
23116;DHT22;11727;52.134;5.052;2022-12-16T02:50:32;1.10;99.90
23116;DHT22;11727;52.134;5.052;2022-12-16T02:52:58;1.20;99.90
23116;DHT22;11727;52.134;5.052;2022-12-16T02:58:37;1.10;99.90
23116;DHT22;11727;52.134;5.052;2022-12-16T03:01:29;1.00;99.90
23116;DHT22;11727;52.134;5.052;2022-12-16T03:04:02;1.00;99.90
23116;DHT22;11727;52.134;5.052;2022-12-16T03:06:32;1.00;99.90
23116;DHT22;11727;52.134;5.052;2022-12-16T03:09:02;1.00;99.90
23116;DHT22;11727;52.134;5.052;2022-12-16T03:11:31;0.90;99.90
23116;DHT22;11727;52.134;5.052;2022-12-16T03:13:58;0.90;99.90
23116;DHT22;11727;52.134;5.052;2022-12-16T03:16:30;0.90;99.90
23116;DHT22;11727;52.134;5.052;2022-12-16T03:19:00;0.80;99.90
23116;DHT22;11727;52.134;5.052;2022-12-16T03:21:31;0.80;99.90
23116;DHT22;11727;52.134;5.052;2022-12-16T03:24:04;0.80;99.90
23116;DHT22;11727;52.134;5.052;2022-12-16T03:29:49;0.70;99.90
23116;DHT22;11727;52.134;5.052;2022-12-16T03:32:32;0.70;99.90
23116;DHT22;11727;52.134;5.052;2022-12-16T03:35:19;0.70;99.90
23116;DHT22;11727;52.134;5.052;2022-12-16T03:37:48;0.70;99.90
23116;DHT22;11727;52.134;5.052;2022-12-16T03:40:14;0.60;99.90
23116;DHT22;11727;52.134;5.052;2022-12-16T03:42:41;0.60;99.90
23116;DHT22;11727;52.134;5.052;2022-12-16T03:45:12;0.60;99.90
23116;DHT22;11727;52.134;5.052;2022-12-16T03:47:39;0.60;99.90
23116;DHT22;11727;52.134;5.052;2022-12-16T03:50:05;0.60;99.90
23116;DHT22;11727;52.134;5.052;2022-12-16T03:52:31;0.60;99.90
23116;DHT22;11727;52.134;5.052;2022-12-16T03:54:57;0.50;99.90
23116;DHT22;11727;52.134;5.052;2022-12-16T03:57:22;0.50;99.90
23116;DHT22;11727;52.134;5.052;2022-12-16T03:59:48;0.50;99.90
23116;DHT22;11727;52.134;5.052;2022-12-16T04:02:14;0.50;99.90
23116;DHT22;11727;52.134;5.052;2022-12-16T04:04:39;0.50;99.90
23116;DHT22;11727;52.134;5.052;2022-12-16T04:07:05;0.50;99.90
23116;DHT22;11727;52.134;5.052;2022-12-16T04:09:46;0.40;99.90
23116;DHT22;11727;52.134;5.052;2022-12-16T04:12:12;0.40;99.90
23116;DHT22;11727;52.134;5.052;2022-12-16T04:14:56;0.30;99.90
23116;DHT22;11727;52.134;5.052;2022-12-16T04:17:41;0.30;99.90
23116;DHT22;11727;52.134;5.052;2022-12-16T04:20:29;0.20;99.90
23116;DHT22;11727;52.134;5.052;2022-12-16T04:23:14;0.20;99.90
23116;DHT22;11727;52.134;5.052;2022-12-16T04:25:59;0.10;99.90
23116;DHT22;11727;52.134;5.052;2022-12-16T04:28:24;0.00;99.90
23116;DHT22;11727;52.134;5.052;2022-12-16T04:30:50;0.00;99.90
23116;DHT22;11727;52.134;5.052;2022-12-16T04:33:16;0.00;99.90
23116;DHT22;11727;52.134;5.052;2022-12-16T04:36:00;0.00;99.90
23116;DHT22;11727;52.134;5.052;2022-12-16T04:38:44;-0.10;99.90
23116;DHT22;11727;52.134;5.052;2022-12-16T04:41:28;-0.10;99.90
23116;DHT22;11727;52.134;5.052;2022-12-16T04:44:13;-0.10;99.90
23116;DHT22;11727;52.134;5.052;2022-12-16T04:46:57;-0.10;99.90
23116;DHT22;11727;52.134;5.052;2022-12-16T04:49:41;-0.20;99.90
23116;DHT22;11727;52.134;5.052;2022-12-16T04:52:25;-0.20;99.90
23116;DHT22;11727;52.134;5.052;2022-12-16T04:55:17;-0.30;99.90
23116;DHT22;11727;52.134;5.052;2022-12-16T04:58:01;-0.30;99.90
23116;DHT22;11727;52.134;5.052;2022-12-16T05:00:47;-0.40;99.90
23116;DHT22;11727;52.134;5.052;2022-12-16T05:03:31;-0.40;99.90
23116;DHT22;11727;52.134;5.052;2022-12-16T05:06:16;-0.50;99.90
23116;DHT22;11727;52.134;5.052;2022-12-16T05:09:00;-0.60;99.90
23116;DHT22;11727;52.134;5.052;2022-12-16T05:11:45;-0.70;99.90
23116;DHT22;11727;52.134;5.052;2022-12-16T05:14:29;-0.70;99.90
23116;DHT22;11727;52.134;5.052;2022-12-16T05:17:14;-0.80;99.90
23116;DHT22;11727;52.134;5.052;2022-12-16T05:19:58;-0.90;99.90
23116;DHT22;11727;52.134;5.052;2022-12-16T05:22:42;-0.90;99.90
23116;DHT22;11727;52.134;5.052;2022-12-16T05:25:26;-0.90;99.90
23116;DHT22;11727;52.134;5.052;2022-12-16T05:28:11;-1.00;99.90
23116;DHT22;11727;52.134;5.052;2022-12-16T05:30:55;-1.00;99.90
23116;DHT22;11727;52.134;5.052;2022-12-16T05:33:39;-1.00;99.90
23116;DHT22;11727;52.134;5.052;2022-12-16T05:36:23;-1.10;99.90
23116;DHT22;11727;52.134;5.052;2022-12-16T05:39:07;-1.10;99.90
23116;DHT22;11727;52.134;5.052;2022-12-16T05:41:52;-1.20;99.90
23116;DHT22;11727;52.134;5.052;2022-12-16T05:44:36;-1.20;99.90
23116;DHT22;11727;52.134;5.052;2022-12-16T05:47:20;-1.20;99.90
23116;DHT22;11727;52.134;5.052;2022-12-16T05:50:05;-1.30;99.90
23116;DHT22;11727;52.134;5.052;2022-12-16T05:52:53;-1.40;99.90
23116;DHT22;11727;52.134;5.052;2022-12-16T05:55:39;-1.40;99.90
23116;DHT22;11727;52.134;5.052;2022-12-16T05:58:24;-1.40;99.90
23116;DHT22;11727;52.134;5.052;2022-12-16T06:01:08;-1.40;99.90
23116;DHT22;11727;52.134;5.052;2022-12-16T06:03:52;-1.50;99.90
23116;DHT22;11727;52.134;5.052;2022-12-16T06:06:37;-1.50;99.90
23116;DHT22;11727;52.134;5.052;2022-12-16T06:09:21;-1.40;99.90
23116;DHT22;11727;52.134;5.052;2022-12-16T06:12:05;-1.40;99.90
23116;DHT22;11727;52.134;5.052;2022-12-16T06:14:49;-1.40;99.90
23116;DHT22;11727;52.134;5.052;2022-12-16T06:17:34;-1.40;99.90
23116;DHT22;11727;52.134;5.052;2022-12-16T06:20:18;-1.50;99.90
23116;DHT22;11727;52.134;5.052;2022-12-16T06:23:12;-1.50;99.90
23116;DHT22;11727;52.134;5.052;2022-12-16T06:25:57;-1.50;99.90
23116;DHT22;11727;52.134;5.052;2022-12-16T06:28:41;-1.60;99.90
23116;DHT22;11727;52.134;5.052;2022-12-16T06:31:25;-1.60;99.90
23116;DHT22;11727;52.134;5.052;2022-12-16T06:34:09;-1.70;99.90
23116;DHT22;11727;52.134;5.052;2022-12-16T06:36:54;-1.80;99.90
23116;DHT22;11727;52.134;5.052;2022-12-16T06:39:38;-1.80;99.90
23116;DHT22;11727;52.134;5.052;2022-12-16T06:42:22;-1.80;99.90
23116;DHT22;11727;52.134;5.052;2022-12-16T06:45:07;-1.90;99.90
23116;DHT22;11727;52.134;5.052;2022-12-16T06:47:51;-1.90;99.90
23116;DHT22;11727;52.134;5.052;2022-12-16T06:50:36;-1.90;99.90
23116;DHT22;11727;52.134;5.052;2022-12-16T06:53:20;-1.90;99.90
23116;DHT22;11727;52.134;5.052;2022-12-16T06:56:04;-1.90;99.90
23116;DHT22;11727;52.134;5.052;2022-12-16T06:58:48;-1.90;99.90
23116;DHT22;11727;52.134;5.052;2022-12-16T07:01:33;-1.90;99.90
23116;DHT22;11727;52.134;5.052;2022-12-16T07:04:17;-1.90;99.90
23116;DHT22;11727;52.134;5.052;2022-12-16T07:07:01;-1.90;99.90
23116;DHT22;11727;52.134;5.052;2022-12-16T07:09:45;-1.90;99.90
23116;DHT22;11727;52.134;5.052;2022-12-16T07:12:29;-1.90;99.90
23116;DHT22;11727;52.134;5.052;2022-12-16T07:15:13;-1.90;99.90
23116;DHT22;11727;52.134;5.052;2022-12-16T07:17:57;-2.00;99.90
23116;DHT22;11727;52.134;5.052;2022-12-16T07:20:41;-2.00;99.90
23116;DHT22;11727;52.134;5.052;2022-12-16T07:23:26;-2.10;99.90
23116;DHT22;11727;52.134;5.052;2022-12-16T07:26:10;-2.10;99.90
23116;DHT22;11727;52.134;5.052;2022-12-16T07:28:54;-2.20;99.90
23116;DHT22;11727;52.134;5.052;2022-12-16T07:31:38;-2.20;99.90
23116;DHT22;11727;52.134;5.052;2022-12-16T07:34:22;-2.30;99.90
23116;DHT22;11727;52.134;5.052;2022-12-16T07:37:06;-2.30;99.90
23116;DHT22;11727;52.134;5.052;2022-12-16T07:39:50;-2.30;99.90
23116;DHT22;11727;52.134;5.052;2022-12-16T07:42:34;-2.30;99.90
23116;DHT22;11727;52.134;5.052;2022-12-16T07:45:18;-2.40;99.90
23116;DHT22;11727;52.134;5.052;2022-12-16T07:48:03;-2.40;99.90
23116;DHT22;11727;52.134;5.052;2022-12-16T07:50:47;-2.30;99.90
23116;DHT22;11727;52.134;5.052;2022-12-16T07:53:31;-2.30;99.90
23116;DHT22;11727;52.134;5.052;2022-12-16T07:56:15;-2.20;99.90
23116;DHT22;11727;52.134;5.052;2022-12-16T07:58:59;-2.10;99.90
23116;DHT22;11727;52.134;5.052;2022-12-16T08:01:43;-2.10;99.90
23116;DHT22;11727;52.134;5.052;2022-12-16T08:04:28;-2.10;99.90
23116;DHT22;11727;52.134;5.052;2022-12-16T08:07:12;-2.00;99.90
23116;DHT22;11727;52.134;5.052;2022-12-16T08:09:56;-1.90;99.90
23116;DHT22;11727;52.134;5.052;2022-12-16T08:12:40;-1.90;99.90
23116;DHT22;11727;52.134;5.052;2022-12-16T08:15:24;-1.80;99.90
23116;DHT22;11727;52.134;5.052;2022-12-16T08:18:08;-1.70;99.90
23116;DHT22;11727;52.134;5.052;2022-12-16T08:20:53;-1.70;99.90
23116;DHT22;11727;52.134;5.052;2022-12-16T08:23:37;-1.70;99.90
23116;DHT22;11727;52.134;5.052;2022-12-16T08:26:21;-1.60;99.90
23116;DHT22;11727;52.134;5.052;2022-12-16T08:29:05;-1.60;99.90
23116;DHT22;11727;52.134;5.052;2022-12-16T08:31:49;-1.60;99.90
23116;DHT22;11727;52.134;5.052;2022-12-16T08:34:33;-1.60;99.90
23116;DHT22;11727;52.134;5.052;2022-12-16T08:37:18;-1.60;99.90
23116;DHT22;11727;52.134;5.052;2022-12-16T08:40:03;-1.60;99.90
23116;DHT22;11727;52.134;5.052;2022-12-16T08:42:48;-1.60;99.90
23116;DHT22;11727;52.134;5.052;2022-12-16T08:45:32;-1.60;99.90
23116;DHT22;11727;52.134;5.052;2022-12-16T08:48:16;-1.60;99.90
23116;DHT22;11727;52.134;5.052;2022-12-16T08:51:02;-1.50;99.90
23116;DHT22;11727;52.134;5.052;2022-12-16T08:53:46;-1.50;99.90
23116;DHT22;11727;52.134;5.052;2022-12-16T08:56:31;-1.50;99.90
23116;DHT22;11727;52.134;5.052;2022-12-16T08:59:15;-1.50;99.90
23116;DHT22;11727;52.134;5.052;2022-12-16T09:01:59;-1.40;99.90
23116;DHT22;11727;52.134;5.052;2022-12-16T09:04:43;-1.40;99.90
23116;DHT22;11727;52.134;5.052;2022-12-16T09:07:27;-1.40;99.90
23116;DHT22;11727;52.134;5.052;2022-12-16T09:10:12;-1.40;99.90
23116;DHT22;11727;52.134;5.052;2022-12-16T09:13:10;-1.40;99.90
23116;DHT22;11727;52.134;5.052;2022-12-16T09:15:55;-1.30;99.90
23116;DHT22;11727;52.134;5.052;2022-12-16T09:18:39;-1.30;99.90
23116;DHT22;11727;52.134;5.052;2022-12-16T09:21:23;-1.20;99.90
23116;DHT22;11727;52.134;5.052;2022-12-16T09:24:07;-1.20;99.90
23116;DHT22;11727;52.134;5.052;2022-12-16T09:26:52;-1.20;99.90
23116;DHT22;11727;52.134;5.052;2022-12-16T09:29:36;-1.10;99.90
23116;DHT22;11727;52.134;5.052;2022-12-16T09:32:20;-1.10;99.90
23116;DHT22;11727;52.134;5.052;2022-12-16T09:35:04;-1.00;99.90
23116;DHT22;11727;52.134;5.052;2022-12-16T09:37:48;-0.90;99.90
23116;DHT22;11727;52.134;5.052;2022-12-16T09:40:33;-0.80;99.90
23116;DHT22;11727;52.134;5.052;2022-12-16T09:49:40;-0.70;99.90
23116;DHT22;11727;52.134;5.052;2022-12-16T09:52:27;-0.60;99.90
23116;DHT22;11727;52.134;5.052;2022-12-16T09:55:28;-0.50;99.90
23116;DHT22;11727;52.134;5.052;2022-12-16T09:58:14;-0.50;99.90
23116;DHT22;11727;52.134;5.052;2022-12-16T10:00:59;-0.40;99.90
23116;DHT22;11727;52.134;5.052;2022-12-16T10:03:44;-0.40;99.90
23116;DHT22;11727;52.134;5.052;2022-12-16T10:06:46;-0.30;99.90
23116;DHT22;11727;52.134;5.052;2022-12-16T10:09:57;-0.20;99.90
23116;DHT22;11727;52.134;5.052;2022-12-16T10:13:11;-0.20;99.90
23116;DHT22;11727;52.134;5.052;2022-12-16T10:19:07;0.00;99.90
23116;DHT22;11727;52.134;5.052;2022-12-16T10:22:12;0.00;99.90
23116;DHT22;11727;52.134;5.052;2022-12-16T10:25:13;0.20;99.90
23116;DHT22;11727;52.134;5.052;2022-12-16T10:28:16;0.20;99.90
23116;DHT22;11727;52.134;5.052;2022-12-16T10:31:14;0.30;99.90
23116;DHT22;11727;52.134;5.052;2022-12-16T10:34:01;0.40;99.90
23116;DHT22;11727;52.134;5.052;2022-12-16T10:36:46;0.40;99.90
23116;DHT22;11727;52.134;5.052;2022-12-16T10:39:37;0.50;99.90
23116;DHT22;11727;52.134;5.052;2022-12-16T10:42:26;0.50;99.90
23116;DHT22;11727;52.134;5.052;2022-12-16T10:45:37;0.60;99.90
23116;DHT22;11727;52.134;5.052;2022-12-16T10:48:25;0.60;99.90
23116;DHT22;11727;52.134;5.052;2022-12-16T10:51:15;0.60;99.90
23116;DHT22;11727;52.134;5.052;2022-12-16T10:54:53;0.80;99.90
23116;DHT22;11727;52.134;5.052;2022-12-16T11:00:37;0.90;99.90
23116;DHT22;11727;52.134;5.052;2022-12-16T11:03:23;1.00;99.90
23116;DHT22;11727;52.134;5.052;2022-12-16T11:06:08;1.00;99.90
23116;DHT22;11727;52.134;5.052;2022-12-16T11:08:52;1.10;99.90
23116;DHT22;11727;52.134;5.052;2022-12-16T11:11:37;1.20;99.90
23116;DHT22;11727;52.134;5.052;2022-12-16T11:14:29;1.30;99.90
23116;DHT22;11727;52.134;5.052;2022-12-16T11:17:23;1.40;99.90
23116;DHT22;11727;52.134;5.052;2022-12-16T11:23:23;1.50;99.90
23116;DHT22;11727;52.134;5.052;2022-12-16T11:26:15;1.40;99.90
23116;DHT22;11727;52.134;5.052;2022-12-16T11:29:17;1.40;99.90
23116;DHT22;11727;52.134;5.052;2022-12-16T11:32:15;1.40;99.90
23116;DHT22;11727;52.134;5.052;2022-12-16T11:35:04;1.40;99.90
23116;DHT22;11727;52.134;5.052;2022-12-16T11:37:53;1.50;99.90
23116;DHT22;11727;52.134;5.052;2022-12-16T11:40:38;1.50;99.90
23116;DHT22;11727;52.134;5.052;2022-12-16T11:43:24;1.60;99.90
23116;DHT22;11727;52.134;5.052;2022-12-16T11:46:18;1.60;99.90
23116;DHT22;11727;52.134;5.052;2022-12-16T11:49:06;1.70;99.90
23116;DHT22;11727;52.134;5.052;2022-12-16T11:51:56;1.80;99.90
23116;DHT22;11727;52.134;5.052;2022-12-16T11:54:56;1.70;99.90
23116;DHT22;11727;52.134;5.052;2022-12-16T12:01:17;1.80;99.90
23116;DHT22;11727;52.134;5.052;2022-12-16T12:04:03;1.90;99.90
23116;DHT22;11727;52.134;5.052;2022-12-16T12:07:28;1.80;99.90
23116;DHT22;11727;52.134;5.052;2022-12-16T12:13:30;1.90;99.90
23116;DHT22;11727;52.134;5.052;2022-12-16T12:22:33;1.90;99.90
23116;DHT22;11727;52.134;5.052;2022-12-16T12:25:20;2.00;99.90
23116;DHT22;11727;52.134;5.052;2022-12-16T12:31:26;2.00;99.90
23116;DHT22;11727;52.134;5.052;2022-12-16T12:34:36;2.00;99.90
23116;DHT22;11727;52.134;5.052;2022-12-16T12:37:35;2.00;99.90
23116;DHT22;11727;52.134;5.052;2022-12-16T12:46:47;2.00;99.90
23116;DHT22;11727;52.134;5.052;2022-12-16T12:52:57;2.10;99.90
23116;DHT22;11727;52.134;5.052;2022-12-16T12:58:44;2.10;99.90
23116;DHT22;11727;52.134;5.052;2022-12-16T13:01:31;2.10;99.90
23116;DHT22;11727;52.134;5.052;2022-12-16T13:04:20;2.20;99.90
23116;DHT22;11727;52.134;5.052;2022-12-16T13:07:05;2.20;99.90
23116;DHT22;11727;52.134;5.052;2022-12-16T13:16:08;2.30;99.90
23116;DHT22;11727;52.134;5.052;2022-12-16T13:22:34;2.30;99.90
23116;DHT22;11727;52.134;5.052;2022-12-16T13:25:51;2.30;99.90
23116;DHT22;11727;52.134;5.052;2022-12-16T13:28:40;2.40;99.90
23116;DHT22;11727;52.134;5.052;2022-12-16T13:31:27;2.40;99.90
23116;DHT22;11727;52.134;5.052;2022-12-16T13:36:57;2.40;99.90
23116;DHT22;11727;52.134;5.052;2022-12-16T13:39:43;2.40;99.90
23116;DHT22;11727;52.134;5.052;2022-12-16T13:48:39;2.30;99.90
23116;DHT22;11727;52.134;5.052;2022-12-16T13:51:55;2.30;99.90
23116;DHT22;11727;52.134;5.052;2022-12-16T13:54:45;2.30;99.90
23116;DHT22;11727;52.134;5.052;2022-12-16T13:57:31;2.30;99.90
23116;DHT22;11727;52.134;5.052;2022-12-16T14:00:20;2.30;99.90
23116;DHT22;11727;52.134;5.052;2022-12-16T14:03:10;2.30;99.90
23116;DHT22;11727;52.134;5.052;2022-12-16T14:05:55;2.30;99.90
23116;DHT22;11727;52.134;5.052;2022-12-16T14:08:40;2.20;99.90
23116;DHT22;11727;52.134;5.052;2022-12-16T14:12:00;2.20;99.90
23116;DHT22;11727;52.134;5.052;2022-12-16T14:14:59;2.20;99.90
23116;DHT22;11727;52.134;5.052;2022-12-16T14:18:22;2.20;99.90
23116;DHT22;11727;52.134;5.052;2022-12-16T14:21:01;2.20;99.90
23116;DHT22;11727;52.134;5.052;2022-12-16T14:23:51;2.20;99.90
23116;DHT22;11727;52.134;5.052;2022-12-16T14:26:36;2.20;99.90
23116;DHT22;11727;52.134;5.052;2022-12-16T14:29:25;2.10;99.90
23116;DHT22;11727;52.134;5.052;2022-12-16T14:32:30;2.10;99.90
23116;DHT22;11727;52.134;5.052;2022-12-16T14:35:26;2.10;99.90
23116;DHT22;11727;52.134;5.052;2022-12-16T14:38:25;2.00;99.90
23116;DHT22;11727;52.134;5.052;2022-12-16T14:41:14;2.00;99.90
23116;DHT22;11727;52.134;5.052;2022-12-16T14:43:59;1.90;99.90
23116;DHT22;11727;52.134;5.052;2022-12-16T14:46:49;1.90;99.90
23116;DHT22;11727;52.134;5.052;2022-12-16T14:49:33;1.90;99.90
23116;DHT22;11727;52.134;5.052;2022-12-16T14:52:23;1.90;99.90
23116;DHT22;11727;52.134;5.052;2022-12-16T14:55:18;1.80;99.90
23116;DHT22;11727;52.134;5.052;2022-12-16T14:58:12;1.80;99.90
23116;DHT22;11727;52.134;5.052;2022-12-16T15:01:34;1.70;99.90
23116;DHT22;11727;52.134;5.052;2022-12-16T15:04:19;1.70;99.90
23116;DHT22;11727;52.134;5.052;2022-12-16T15:07:06;1.70;99.90
23116;DHT22;11727;52.134;5.052;2022-12-16T15:09:55;1.70;99.90
23116;DHT22;11727;52.134;5.052;2022-12-16T15:12:43;1.60;99.90
23116;DHT22;11727;52.134;5.052;2022-12-16T15:15:43;1.60;99.90
23116;DHT22;11727;52.134;5.052;2022-12-16T15:18:38;1.50;99.90
23116;DHT22;11727;52.134;5.052;2022-12-16T15:21:23;1.50;99.90
23116;DHT22;11727;52.134;5.052;2022-12-16T15:24:09;1.40;99.90
23116;DHT22;11727;52.134;5.052;2022-12-16T15:27:23;1.40;99.90
23116;DHT22;11727;52.134;5.052;2022-12-16T15:30:30;1.40;99.90
23116;DHT22;11727;52.134;5.052;2022-12-16T15:33:14;1.30;99.90
23116;DHT22;11727;52.134;5.052;2022-12-16T15:36:01;1.20;99.90
23116;DHT22;11727;52.134;5.052;2022-12-16T15:38:45;1.20;99.90
23116;DHT22;11727;52.134;5.052;2022-12-16T15:41:31;1.20;99.90
23116;DHT22;11727;52.134;5.052;2022-12-16T15:44:21;1.10;99.90
23116;DHT22;11727;52.134;5.052;2022-12-16T15:47:31;1.10;99.90
23116;DHT22;11727;52.134;5.052;2022-12-16T15:50:19;1.00;99.90
23116;DHT22;11727;52.134;5.052;2022-12-16T15:56:20;1.00;99.90
23116;DHT22;11727;52.134;5.052;2022-12-16T16:01:57;1.00;99.90
23116;DHT22;11727;52.134;5.052;2022-12-16T16:04:42;1.00;99.90
23116;DHT22;11727;52.134;5.052;2022-12-16T16:07:26;1.00;99.90
23116;DHT22;11727;52.134;5.052;2022-12-16T16:10:20;1.00;99.90
23116;DHT22;11727;52.134;5.052;2022-12-16T16:13:04;1.00;99.90
23116;DHT22;11727;52.134;5.052;2022-12-16T16:15:49;1.00;99.90
23116;DHT22;11727;52.134;5.052;2022-12-16T16:18:33;0.90;99.90
23116;DHT22;11727;52.134;5.052;2022-12-16T16:21:17;0.90;99.90
23116;DHT22;11727;52.134;5.052;2022-12-16T16:24:01;0.80;99.90
23116;DHT22;11727;52.134;5.052;2022-12-16T16:26:45;0.80;99.90
23116;DHT22;11727;52.134;5.052;2022-12-16T16:29:29;0.70;99.90
23116;DHT22;11727;52.134;5.052;2022-12-16T16:32:14;0.60;99.90
23116;DHT22;11727;52.134;5.052;2022-12-16T16:34:58;0.60;99.90
23116;DHT22;11727;52.134;5.052;2022-12-16T16:37:42;0.50;99.90
23116;DHT22;11727;52.134;5.052;2022-12-16T16:40:41;0.40;99.90
23116;DHT22;11727;52.134;5.052;2022-12-16T16:43:26;0.30;99.90
23116;DHT22;11727;52.134;5.052;2022-12-16T16:49:22;0.20;99.90
23116;DHT22;11727;52.134;5.052;2022-12-16T16:52:12;0.10;99.90
23116;DHT22;11727;52.134;5.052;2022-12-16T16:54:56;0.10;99.90
23116;DHT22;11727;52.134;5.052;2022-12-16T16:57:40;0.00;99.90
23116;DHT22;11727;52.134;5.052;2022-12-16T17:00:25;0.00;99.90
23116;DHT22;11727;52.134;5.052;2022-12-16T17:03:09;-0.20;99.90
23116;DHT22;11727;52.134;5.052;2022-12-16T17:05:53;-0.20;99.90
23116;DHT22;11727;52.134;5.052;2022-12-16T17:08:37;-0.20;99.90
23116;DHT22;11727;52.134;5.052;2022-12-16T17:11:21;-0.30;99.90
23116;DHT22;11727;52.134;5.052;2022-12-16T17:14:17;-0.30;99.90
23116;DHT22;11727;52.134;5.052;2022-12-16T17:17:02;-0.40;99.90
23116;DHT22;11727;52.134;5.052;2022-12-16T18:45:52;-1.60;99.90
23116;DHT22;11727;52.134;5.052;2022-12-16T18:48:36;-1.70;99.90
23116;DHT22;11727;52.134;5.052;2022-12-16T18:51:20;-1.80;99.90
23116;DHT22;11727;52.134;5.052;2022-12-16T18:54:04;-1.80;99.90
23116;DHT22;11727;52.134;5.052;2022-12-16T18:56:48;-1.80;99.90
23116;DHT22;11727;52.134;5.052;2022-12-16T18:59:33;-1.90;99.90
23116;DHT22;11727;52.134;5.052;2022-12-16T19:02:17;-1.90;99.90
23116;DHT22;11727;52.134;5.052;2022-12-16T19:05:01;-1.90;99.90
23116;DHT22;11727;52.134;5.052;2022-12-16T19:07:45;-1.90;99.90
23116;DHT22;11727;52.134;5.052;2022-12-16T19:10:29;-2.00;99.90
23116;DHT22;11727;52.134;5.052;2022-12-16T19:13:14;-2.00;99.90
23116;DHT22;11727;52.134;5.052;2022-12-16T19:16:02;-2.10;99.90
23116;DHT22;11727;52.134;5.052;2022-12-16T19:18:46;-2.10;99.90
23116;DHT22;11727;52.134;5.052;2022-12-16T19:21:30;-2.10;99.90
23116;DHT22;11727;52.134;5.052;2022-12-16T19:24:15;-2.10;99.90
23116;DHT22;11727;52.134;5.052;2022-12-16T19:26:59;-2.10;99.90
23116;DHT22;11727;52.134;5.052;2022-12-16T19:29:43;-2.20;99.90
23116;DHT22;11727;52.134;5.052;2022-12-16T19:32:27;-2.30;99.90
23116;DHT22;11727;52.134;5.052;2022-12-16T19:35:11;-2.30;99.90
23116;DHT22;11727;52.134;5.052;2022-12-16T19:37:56;-2.30;99.90
23116;DHT22;11727;52.134;5.052;2022-12-16T19:40:49;-2.40;99.90
23116;DHT22;11727;52.134;5.052;2022-12-16T19:43:33;-2.40;99.90
23116;DHT22;11727;52.134;5.052;2022-12-16T19:46:18;-2.40;99.90
23116;DHT22;11727;52.134;5.052;2022-12-16T19:49:02;-2.40;99.90
23116;DHT22;11727;52.134;5.052;2022-12-16T19:51:46;-2.40;99.90
23116;DHT22;11727;52.134;5.052;2022-12-16T19:54:30;-2.40;99.90
23116;DHT22;11727;52.134;5.052;2022-12-16T19:57:14;-2.50;99.90
23116;DHT22;11727;52.134;5.052;2022-12-16T19:59:58;-2.50;99.90
23116;DHT22;11727;52.134;5.052;2022-12-16T20:02:42;-2.60;99.90
23116;DHT22;11727;52.134;5.052;2022-12-16T20:05:27;-2.60;99.90
23116;DHT22;11727;52.134;5.052;2022-12-16T20:08:12;-2.60;99.90
23116;DHT22;11727;52.134;5.052;2022-12-16T20:10:56;-2.60;99.90
23116;DHT22;11727;52.134;5.052;2022-12-16T20:13:40;-2.60;99.90
23116;DHT22;11727;52.134;5.052;2022-12-16T20:16:29;-2.70;99.90
23116;DHT22;11727;52.134;5.052;2022-12-16T20:19:13;-2.70;99.90
23116;DHT22;11727;52.134;5.052;2022-12-16T20:21:57;-2.70;99.90
23116;DHT22;11727;52.134;5.052;2022-12-16T20:24:41;-2.80;99.90
23116;DHT22;11727;52.134;5.052;2022-12-16T20:27:26;-2.80;99.90